sensor_id;sensor_type;location;lat;lon;timestamp;P1;durP1;ratioP1;P2;durP2;ratioP2
76900;SDS011;65859;43.020;25.096;2023-04-24T00:02:21;9.63;;;7.07;;
76900;SDS011;65859;43.020;25.096;2023-04-24T00:04:49;10.45;;;6.88;;
76900;SDS011;65859;43.020;25.096;2023-04-24T00:07:15;7.60;;;6.80;;
76900;SDS011;65859;43.020;25.096;2023-04-24T00:09:42;9.23;;;7.00;;
76900;SDS011;65859;43.020;25.096;2023-04-24T00:12:09;10.02;;;7.10;;
76900;SDS011;65859;43.020;25.096;2023-04-24T00:14:35;12.63;;;7.13;;
76900;SDS011;65859;43.020;25.096;2023-04-24T00:17:01;16.38;;;7.78;;
76900;SDS011;65859;43.020;25.096;2023-04-24T00:19:28;11.02;;;7.30;;
76900;SDS011;65859;43.020;25.096;2023-04-24T00:21:54;13.15;;;7.82;;
76900;SDS011;65859;43.020;25.096;2023-04-24T00:24:21;12.82;;;7.50;;
76900;SDS011;65859;43.020;25.096;2023-04-24T00:26:47;11.35;;;7.68;;
76900;SDS011;65859;43.020;25.096;2023-04-24T00:29:14;13.00;;;8.07;;
76900;SDS011;65859;43.020;25.096;2023-04-24T00:31:42;11.15;;;7.45;;
76900;SDS011;65859;43.020;25.096;2023-04-24T00:34:08;13.52;;;7.40;;
76900;SDS011;65859;43.020;25.096;2023-04-24T00:36:35;8.98;;;7.65;;
76900;SDS011;65859;43.020;25.096;2023-04-24T00:39:01;12.57;;;8.13;;
76900;SDS011;65859;43.020;25.096;2023-04-24T00:41:28;11.82;;;8.82;;
76900;SDS011;65859;43.020;25.096;2023-04-24T00:43:54;13.45;;;7.95;;
76900;SDS011;65859;43.020;25.096;2023-04-24T00:46:21;9.48;;;7.57;;
76900;SDS011;65859;43.020;25.096;2023-04-24T00:48:47;10.32;;;6.55;;
76900;SDS011;65859;43.020;25.096;2023-04-24T00:51:14;8.60;;;7.15;;
76900;SDS011;65859;43.020;25.096;2023-04-24T00:53:40;10.55;;;7.22;;
76900;SDS011;65859;43.020;25.096;2023-04-24T00:56:07;10.02;;;6.93;;
76900;SDS011;65859;43.020;25.096;2023-04-24T00:58:33;10.43;;;8.15;;
76900;SDS011;65859;43.020;25.096;2023-04-24T01:01:00;11.45;;;8.05;;
76900;SDS011;65859;43.020;25.096;2023-04-24T01:03:29;14.32;;;8.25;;
76900;SDS011;65859;43.020;25.096;2023-04-24T01:05:57;10.23;;;7.75;;
76900;SDS011;65859;43.020;25.096;2023-04-24T01:08:23;11.57;;;8.20;;
76900;SDS011;65859;43.020;25.096;2023-04-24T01:10:54;11.90;;;8.27;;
76900;SDS011;65859;43.020;25.096;2023-04-24T01:13:23;14.60;;;9.70;;
76900;SDS011;65859;43.020;25.096;2023-04-24T01:15:50;13.77;;;8.73;;
76900;SDS011;65859;43.020;25.096;2023-04-24T01:18:16;12.88;;;8.20;;
76900;SDS011;65859;43.020;25.096;2023-04-24T01:20:43;9.57;;;8.23;;
76900;SDS011;65859;43.020;25.096;2023-04-24T01:23:11;11.30;;;8.18;;
76900;SDS011;65859;43.020;25.096;2023-04-24T01:25:38;11.35;;;8.13;;
76900;SDS011;65859;43.020;25.096;2023-04-24T01:28:04;12.48;;;7.63;;
76900;SDS011;65859;43.020;25.096;2023-04-24T01:30:31;10.82;;;7.78;;
76900;SDS011;65859;43.020;25.096;2023-04-24T01:32:58;11.73;;;7.93;;
76900;SDS011;65859;43.020;25.096;2023-04-24T01:35:26;13.80;;;8.85;;
76900;SDS011;65859;43.020;25.096;2023-04-24T01:37:52;11.85;;;8.32;;
76900;SDS011;65859;43.020;25.096;2023-04-24T01:40:19;12.40;;;7.70;;
76900;SDS011;65859;43.020;25.096;2023-04-24T01:42:45;11.48;;;7.88;;
76900;SDS011;65859;43.020;25.096;2023-04-24T01:45:12;9.45;;;7.28;;
76900;SDS011;65859;43.020;25.096;2023-04-24T01:47:39;10.38;;;6.90;;
76900;SDS011;65859;43.020;25.096;2023-04-24T01:50:06;8.23;;;6.70;;
76900;SDS011;65859;43.020;25.096;2023-04-24T01:52:33;13.15;;;7.43;;
76900;SDS011;65859;43.020;25.096;2023-04-24T01:55:01;9.93;;;7.35;;
76900;SDS011;65859;43.020;25.096;2023-04-24T01:57:29;9.85;;;6.72;;
76900;SDS011;65859;43.020;25.096;2023-04-24T01:59:56;12.13;;;7.38;;
76900;SDS011;65859;43.020;25.096;2023-04-24T02:02:22;15.05;;;7.55;;
76900;SDS011;65859;43.020;25.096;2023-04-24T02:04:52;9.95;;;6.72;;
76900;SDS011;65859;43.020;25.096;2023-04-24T02:07:20;15.05;;;7.75;;
76900;SDS011;65859;43.020;25.096;2023-04-24T02:09:46;13.75;;;8.00;;
76900;SDS011;65859;43.020;25.096;2023-04-24T02:12:13;13.02;;;8.13;;
76900;SDS011;65859;43.020;25.096;2023-04-24T02:14:40;13.77;;;7.93;;
76900;SDS011;65859;43.020;25.096;2023-04-24T02:17:07;12.32;;;8.90;;
76900;SDS011;65859;43.020;25.096;2023-04-24T02:19:34;14.57;;;8.70;;
76900;SDS011;65859;43.020;25.096;2023-04-24T02:22:00;11.30;;;7.65;;
76900;SDS011;65859;43.020;25.096;2023-04-24T02:24:26;15.00;;;7.32;;
76900;SDS011;65859;43.020;25.096;2023-04-24T02:26:53;20.35;;;8.98;;
76900;SDS011;65859;43.020;25.096;2023-04-24T02:29:19;11.68;;;7.25;;
76900;SDS011;65859;43.020;25.096;2023-04-24T02:31:46;9.63;;;7.28;;
76900;SDS011;65859;43.020;25.096;2023-04-24T02:34:12;9.95;;;7.68;;
76900;SDS011;65859;43.020;25.096;2023-04-24T02:36:39;12.95;;;8.35;;
76900;SDS011;65859;43.020;25.096;2023-04-24T02:39:06;14.77;;;8.55;;
76900;SDS011;65859;43.020;25.096;2023-04-24T02:41:33;13.02;;;8.32;;
76900;SDS011;65859;43.020;25.096;2023-04-24T02:43:59;11.85;;;8.50;;
76900;SDS011;65859;43.020;25.096;2023-04-24T02:46:26;12.60;;;7.85;;
76900;SDS011;65859;43.020;25.096;2023-04-24T02:48:52;16.13;;;9.75;;
76900;SDS011;65859;43.020;25.096;2023-04-24T02:51:18;14.63;;;9.05;;
76900;SDS011;65859;43.020;25.096;2023-04-24T02:53:45;13.20;;;8.30;;
76900;SDS011;65859;43.020;25.096;2023-04-24T02:56:11;13.43;;;8.55;;
76900;SDS011;65859;43.020;25.096;2023-04-24T02:58:38;12.30;;;8.05;;
76900;SDS011;65859;43.020;25.096;2023-04-24T03:01:04;14.63;;;8.88;;
76900;SDS011;65859;43.020;25.096;2023-04-24T03:03:31;14.35;;;9.25;;
76900;SDS011;65859;43.020;25.096;2023-04-24T03:05:57;12.88;;;9.98;;
76900;SDS011;65859;43.020;25.096;2023-04-24T03:08:24;21.05;;;13.45;;
76900;SDS011;65859;43.020;25.096;2023-04-24T03:10:51;21.42;;;13.50;;
76900;SDS011;65859;43.020;25.096;2023-04-24T03:13:18;16.60;;;12.55;;
76900;SDS011;65859;43.020;25.096;2023-04-24T03:15:44;27.08;;;19.15;;
76900;SDS011;65859;43.020;25.096;2023-04-24T03:18:12;22.95;;;16.05;;
76900;SDS011;65859;43.020;25.096;2023-04-24T03:20:38;13.82;;;10.38;;
76900;SDS011;65859;43.020;25.096;2023-04-24T03:23:04;11.05;;;8.73;;
76900;SDS011;65859;43.020;25.096;2023-04-24T03:25:31;12.40;;;9.60;;
76900;SDS011;65859;43.020;25.096;2023-04-24T03:27:57;18.27;;;11.70;;
76900;SDS011;65859;43.020;25.096;2023-04-24T03:30:23;16.58;;;11.05;;
76900;SDS011;65859;43.020;25.096;2023-04-24T03:32:50;19.00;;;14.18;;
76900;SDS011;65859;43.020;25.096;2023-04-24T03:35:16;65.30;;;39.85;;
76900;SDS011;65859;43.020;25.096;2023-04-24T03:37:42;61.33;;;38.55;;
76900;SDS011;65859;43.020;25.096;2023-04-24T03:40:09;35.45;;;23.08;;
76900;SDS011;65859;43.020;25.096;2023-04-24T03:42:37;29.15;;;19.63;;
76900;SDS011;65859;43.020;25.096;2023-04-24T03:45:03;24.85;;;14.18;;
76900;SDS011;65859;43.020;25.096;2023-04-24T03:47:30;22.45;;;11.35;;
76900;SDS011;65859;43.020;25.096;2023-04-24T03:49:56;20.95;;;11.80;;
76900;SDS011;65859;43.020;25.096;2023-04-24T03:52:23;16.05;;;10.80;;
76900;SDS011;65859;43.020;25.096;2023-04-24T03:54:49;16.65;;;9.50;;
76900;SDS011;65859;43.020;25.096;2023-04-24T03:57:15;15.23;;;9.68;;
76900;SDS011;65859;43.020;25.096;2023-04-24T03:59:42;12.90;;;10.35;;
76900;SDS011;65859;43.020;25.096;2023-04-24T04:02:09;13.02;;;9.00;;
76900;SDS011;65859;43.020;25.096;2023-04-24T04:04:35;14.05;;;8.80;;
76900;SDS011;65859;43.020;25.096;2023-04-24T04:07:01;13.75;;;9.30;;
76900;SDS011;65859;43.020;25.096;2023-04-24T04:09:28;17.02;;;10.70;;
76900;SDS011;65859;43.020;25.096;2023-04-24T04:11:54;20.50;;;10.07;;
76900;SDS011;65859;43.020;25.096;2023-04-24T04:14:22;16.23;;;10.25;;
76900;SDS011;65859;43.020;25.096;2023-04-24T04:16:49;19.95;;;10.27;;
76900;SDS011;65859;43.020;25.096;2023-04-24T04:19:15;18.13;;;10.68;;
76900;SDS011;65859;43.020;25.096;2023-04-24T04:21:41;19.45;;;11.55;;
76900;SDS011;65859;43.020;25.096;2023-04-24T04:24:08;20.60;;;11.43;;
76900;SDS011;65859;43.020;25.096;2023-04-24T04:26:34;22.27;;;11.82;;
76900;SDS011;65859;43.020;25.096;2023-04-24T04:29:03;15.07;;;10.32;;
76900;SDS011;65859;43.020;25.096;2023-04-24T04:31:29;15.15;;;11.05;;
76900;SDS011;65859;43.020;25.096;2023-04-24T04:33:55;21.13;;;13.95;;
76900;SDS011;65859;43.020;25.096;2023-04-24T04:36:22;18.40;;;13.18;;
76900;SDS011;65859;43.020;25.096;2023-04-24T04:38:49;19.60;;;13.10;;
76900;SDS011;65859;43.020;25.096;2023-04-24T04:41:16;17.00;;;11.15;;
76900;SDS011;65859;43.020;25.096;2023-04-24T04:43:43;17.45;;;13.57;;
76900;SDS011;65859;43.020;25.096;2023-04-24T04:46:11;15.77;;;12.70;;
76900;SDS011;65859;43.020;25.096;2023-04-24T04:48:37;14.10;;;11.27;;
76900;SDS011;65859;43.020;25.096;2023-04-24T04:51:04;15.80;;;11.95;;
76900;SDS011;65859;43.020;25.096;2023-04-24T04:53:31;13.07;;;9.20;;
76900;SDS011;65859;43.020;25.096;2023-04-24T04:55:57;10.30;;;7.05;;
76900;SDS011;65859;43.020;25.096;2023-04-24T04:58:24;12.25;;;7.75;;
76900;SDS011;65859;43.020;25.096;2023-04-24T05:00:51;11.93;;;8.27;;
76900;SDS011;65859;43.020;25.096;2023-04-24T05:03:17;19.52;;;9.18;;
76900;SDS011;65859;43.020;25.096;2023-04-24T05:05:43;13.93;;;8.73;;
76900;SDS011;65859;43.020;25.096;2023-04-24T05:08:11;12.20;;;8.52;;
76900;SDS011;65859;43.020;25.096;2023-04-24T05:10:37;15.80;;;10.63;;
76900;SDS011;65859;43.020;25.096;2023-04-24T05:13:04;12.50;;;9.50;;
76900;SDS011;65859;43.020;25.096;2023-04-24T05:15:30;12.05;;;9.05;;
76900;SDS011;65859;43.020;25.096;2023-04-24T05:17:58;9.35;;;7.57;;
76900;SDS011;65859;43.020;25.096;2023-04-24T05:20:24;22.83;;;19.25;;
76900;SDS011;65859;43.020;25.096;2023-04-24T05:22:51;17.15;;;11.30;;
76900;SDS011;65859;43.020;25.096;2023-04-24T05:25:17;17.02;;;11.68;;
76900;SDS011;65859;43.020;25.096;2023-04-24T05:27:43;21.77;;;12.07;;
76900;SDS011;65859;43.020;25.096;2023-04-24T05:30:10;16.52;;;12.68;;
76900;SDS011;65859;43.020;25.096;2023-04-24T05:32:39;17.08;;;11.55;;
76900;SDS011;65859;43.020;25.096;2023-04-24T05:35:06;16.90;;;12.35;;
76900;SDS011;65859;43.020;25.096;2023-04-24T05:37:32;13.88;;;9.82;;
76900;SDS011;65859;43.020;25.096;2023-04-24T05:39:59;13.25;;;9.80;;
76900;SDS011;65859;43.020;25.096;2023-04-24T05:42:25;14.38;;;8.40;;
76900;SDS011;65859;43.020;25.096;2023-04-24T05:44:51;11.73;;;7.00;;
76900;SDS011;65859;43.020;25.096;2023-04-24T05:47:19;9.43;;;6.38;;
76900;SDS011;65859;43.020;25.096;2023-04-24T05:49:48;12.70;;;7.60;;
76900;SDS011;65859;43.020;25.096;2023-04-24T05:52:14;10.23;;;6.25;;
76900;SDS011;65859;43.020;25.096;2023-04-24T05:54:40;8.45;;;6.38;;
76900;SDS011;65859;43.020;25.096;2023-04-24T05:57:07;11.68;;;8.05;;
76900;SDS011;65859;43.020;25.096;2023-04-24T05:59:35;12.45;;;7.88;;
76900;SDS011;65859;43.020;25.096;2023-04-24T06:02:03;12.75;;;8.60;;
76900;SDS011;65859;43.020;25.096;2023-04-24T06:04:29;15.05;;;8.40;;
76900;SDS011;65859;43.020;25.096;2023-04-24T06:06:57;15.82;;;8.50;;
76900;SDS011;65859;43.020;25.096;2023-04-24T06:09:23;18.20;;;9.80;;
76900;SDS011;65859;43.020;25.096;2023-04-24T06:11:50;15.30;;;10.88;;
76900;SDS011;65859;43.020;25.096;2023-04-24T06:14:18;15.27;;;9.45;;
76900;SDS011;65859;43.020;25.096;2023-04-24T06:16:45;11.85;;;7.68;;
76900;SDS011;65859;43.020;25.096;2023-04-24T06:19:11;18.95;;;10.02;;
76900;SDS011;65859;43.020;25.096;2023-04-24T06:21:39;23.63;;;10.23;;
76900;SDS011;65859;43.020;25.096;2023-04-24T06:24:05;19.55;;;8.80;;
76900;SDS011;65859;43.020;25.096;2023-04-24T06:26:32;11.27;;;7.80;;
76900;SDS011;65859;43.020;25.096;2023-04-24T06:28:58;14.38;;;7.35;;
76900;SDS011;65859;43.020;25.096;2023-04-24T06:31:25;11.73;;;7.22;;
76900;SDS011;65859;43.020;25.096;2023-04-24T06:33:51;15.43;;;8.10;;
76900;SDS011;65859;43.020;25.096;2023-04-24T06:36:18;16.27;;;7.88;;
76900;SDS011;65859;43.020;25.096;2023-04-24T06:38:44;16.42;;;9.05;;
76900;SDS011;65859;43.020;25.096;2023-04-24T06:41:10;13.18;;;9.60;;
76900;SDS011;65859;43.020;25.096;2023-04-24T06:43:36;15.70;;;9.50;;
76900;SDS011;65859;43.020;25.096;2023-04-24T06:46:03;15.95;;;11.00;;
76900;SDS011;65859;43.020;25.096;2023-04-24T06:48:29;15.95;;;11.02;;
76900;SDS011;65859;43.020;25.096;2023-04-24T06:50:55;17.48;;;10.40;;
76900;SDS011;65859;43.020;25.096;2023-04-24T06:53:24;23.02;;;11.27;;
76900;SDS011;65859;43.020;25.096;2023-04-24T06:55:50;17.02;;;11.27;;
76900;SDS011;65859;43.020;25.096;2023-04-24T06:58:17;17.35;;;10.55;;
76900;SDS011;65859;43.020;25.096;2023-04-24T07:00:43;17.30;;;10.50;;
76900;SDS011;65859;43.020;25.096;2023-04-24T07:03:10;17.05;;;11.20;;
76900;SDS011;65859;43.020;25.096;2023-04-24T07:05:37;21.98;;;10.25;;
76900;SDS011;65859;43.020;25.096;2023-04-24T07:08:03;18.90;;;11.65;;
76900;SDS011;65859;43.020;25.096;2023-04-24T07:10:29;16.90;;;11.35;;
76900;SDS011;65859;43.020;25.096;2023-04-24T07:12:56;16.15;;;11.30;;
76900;SDS011;65859;43.020;25.096;2023-04-24T07:15:22;19.10;;;11.23;;
76900;SDS011;65859;43.020;25.096;2023-04-24T07:17:49;15.20;;;9.98;;
76900;SDS011;65859;43.020;25.096;2023-04-24T07:20:15;15.90;;;10.48;;
76900;SDS011;65859;43.020;25.096;2023-04-24T07:22:42;17.27;;;10.18;;
76900;SDS011;65859;43.020;25.096;2023-04-24T07:25:09;15.02;;;10.63;;
76900;SDS011;65859;43.020;25.096;2023-04-24T07:27:36;16.00;;;10.45;;
76900;SDS011;65859;43.020;25.096;2023-04-24T07:30:03;15.65;;;10.50;;
76900;SDS011;65859;43.020;25.096;2023-04-24T07:32:30;17.33;;;10.93;;
76900;SDS011;65859;43.020;25.096;2023-04-24T07:34:56;17.33;;;11.02;;
76900;SDS011;65859;43.020;25.096;2023-04-24T07:37:23;15.02;;;10.63;;
76900;SDS011;65859;43.020;25.096;2023-04-24T07:39:49;18.33;;;11.98;;
76900;SDS011;65859;43.020;25.096;2023-04-24T07:42:16;16.58;;;11.60;;
76900;SDS011;65859;43.020;25.096;2023-04-24T07:44:42;16.70;;;12.60;;
76900;SDS011;65859;43.020;25.096;2023-04-24T07:47:08;21.55;;;13.52;;
76900;SDS011;65859;43.020;25.096;2023-04-24T07:49:35;19.70;;;12.65;;
76900;SDS011;65859;43.020;25.096;2023-04-24T07:52:01;19.13;;;12.85;;
76900;SDS011;65859;43.020;25.096;2023-04-24T07:54:27;18.90;;;13.10;;
76900;SDS011;65859;43.020;25.096;2023-04-24T07:56:56;20.88;;;13.07;;
76900;SDS011;65859;43.020;25.096;2023-04-24T07:59:23;18.58;;;12.75;;
76900;SDS011;65859;43.020;25.096;2023-04-24T08:01:49;21.80;;;13.93;;
76900;SDS011;65859;43.020;25.096;2023-04-24T08:04:15;21.13;;;14.63;;
76900;SDS011;65859;43.020;25.096;2023-04-24T08:06:43;21.17;;;14.95;;
76900;SDS011;65859;43.020;25.096;2023-04-24T08:09:10;26.17;;;16.20;;
76900;SDS011;65859;43.020;25.096;2023-04-24T08:11:36;22.42;;;16.55;;
76900;SDS011;65859;43.020;25.096;2023-04-24T08:14:02;23.50;;;15.88;;
76900;SDS011;65859;43.020;25.096;2023-04-24T08:16:28;28.00;;;17.55;;
76900;SDS011;65859;43.020;25.096;2023-04-24T08:18:55;24.80;;;17.77;;
76900;SDS011;65859;43.020;25.096;2023-04-24T08:21:21;26.83;;;17.13;;
76900;SDS011;65859;43.020;25.096;2023-04-24T08:23:48;18.42;;;13.57;;
76900;SDS011;65859;43.020;25.096;2023-04-24T08:26:15;24.70;;;14.30;;
76900;SDS011;65859;43.020;25.096;2023-04-24T08:28:42;19.02;;;13.32;;
76900;SDS011;65859;43.020;25.096;2023-04-24T08:31:09;18.17;;;13.20;;
76900;SDS011;65859;43.020;25.096;2023-04-24T08:33:35;15.10;;;11.25;;
76900;SDS011;65859;43.020;25.096;2023-04-24T08:36:02;14.55;;;9.75;;
76900;SDS011;65859;43.020;25.096;2023-04-24T08:38:30;11.70;;;8.20;;
76900;SDS011;65859;43.020;25.096;2023-04-24T08:40:57;14.60;;;8.23;;
76900;SDS011;65859;43.020;25.096;2023-04-24T08:43:25;9.60;;;8.00;;
76900;SDS011;65859;43.020;25.096;2023-04-24T08:45:52;11.90;;;8.45;;
76900;SDS011;65859;43.020;25.096;2023-04-24T08:48:22;9.57;;;8.57;;
76900;SDS011;65859;43.020;25.096;2023-04-24T08:50:50;15.65;;;8.57;;
76900;SDS011;65859;43.020;25.096;2023-04-24T08:53:17;9.93;;;8.40;;
76900;SDS011;65859;43.020;25.096;2023-04-24T08:55:44;8.77;;;7.25;;
76900;SDS011;65859;43.020;25.096;2023-04-24T08:58:13;9.10;;;8.13;;
76900;SDS011;65859;43.020;25.096;2023-04-24T09:00:42;8.88;;;7.97;;
76900;SDS011;65859;43.020;25.096;2023-04-24T09:03:13;10.38;;;8.02;;
76900;SDS011;65859;43.020;25.096;2023-04-24T09:05:41;10.40;;;7.75;;
76900;SDS011;65859;43.020;25.096;2023-04-24T09:08:11;17.73;;;9.63;;
76900;SDS011;65859;43.020;25.096;2023-04-24T09:10:39;7.40;;;6.55;;
76900;SDS011;65859;43.020;25.096;2023-04-24T09:13:06;8.82;;;6.15;;
76900;SDS011;65859;43.020;25.096;2023-04-24T09:15:35;9.85;;;6.18;;
76900;SDS011;65859;43.020;25.096;2023-04-24T09:18:02;6.45;;;5.50;;
76900;SDS011;65859;43.020;25.096;2023-04-24T09:20:29;11.55;;;6.40;;
76900;SDS011;65859;43.020;25.096;2023-04-24T09:22:56;8.55;;;6.57;;
76900;SDS011;65859;43.020;25.096;2023-04-24T09:25:25;7.25;;;5.40;;
76900;SDS011;65859;43.020;25.096;2023-04-24T09:28:00;8.82;;;5.75;;
76900;SDS011;65859;43.020;25.096;2023-04-24T09:30:28;12.07;;;7.20;;
76900;SDS011;65859;43.020;25.096;2023-04-24T09:33:16;12.00;;;6.70;;
76900;SDS011;65859;43.020;25.096;2023-04-24T09:35:42;11.13;;;7.60;;
76900;SDS011;65859;43.020;25.096;2023-04-24T09:38:15;9.63;;;7.53;;
76900;SDS011;65859;43.020;25.096;2023-04-24T09:40:41;10.52;;;7.82;;
76900;SDS011;65859;43.020;25.096;2023-04-24T09:43:11;10.38;;;8.07;;
76900;SDS011;65859;43.020;25.096;2023-04-24T09:45:38;11.18;;;6.47;;
76900;SDS011;65859;43.020;25.096;2023-04-24T09:48:05;10.98;;;6.90;;
76900;SDS011;65859;43.020;25.096;2023-04-24T09:50:35;8.85;;;6.40;;
76900;SDS011;65859;43.020;25.096;2023-04-24T09:53:02;8.93;;;6.63;;
76900;SDS011;65859;43.020;25.096;2023-04-24T09:55:30;11.40;;;6.30;;
76900;SDS011;65859;43.020;25.096;2023-04-24T09:57:58;10.27;;;7.38;;
76900;SDS011;65859;43.020;25.096;2023-04-24T10:00:27;8.90;;;6.20;;
76900;SDS011;65859;43.020;25.096;2023-04-24T10:03:01;9.93;;;5.43;;
76900;SDS011;65859;43.020;25.096;2023-04-24T10:05:34;8.05;;;5.68;;
76900;SDS011;65859;43.020;25.096;2023-04-24T10:08:07;9.55;;;6.38;;
76900;SDS011;65859;43.020;25.096;2023-04-24T10:10:42;10.23;;;6.35;;
76900;SDS011;65859;43.020;25.096;2023-04-24T10:13:11;8.15;;;5.75;;
76900;SDS011;65859;43.020;25.096;2023-04-24T10:15:39;11.40;;;7.28;;
76900;SDS011;65859;43.020;25.096;2023-04-24T10:18:06;5.72;;;4.70;;
76900;SDS011;65859;43.020;25.096;2023-04-24T10:20:35;6.90;;;4.78;;
76900;SDS011;65859;43.020;25.096;2023-04-24T10:23:03;6.35;;;4.47;;
76900;SDS011;65859;43.020;25.096;2023-04-24T10:25:30;6.60;;;4.55;;
76900;SDS011;65859;43.020;25.096;2023-04-24T10:27:58;5.53;;;4.68;;
76900;SDS011;65859;43.020;25.096;2023-04-24T10:30:26;5.18;;;4.40;;
76900;SDS011;65859;43.020;25.096;2023-04-24T10:33:04;8.35;;;4.90;;
76900;SDS011;65859;43.020;25.096;2023-04-24T10:35:34;6.32;;;4.80;;
76900;SDS011;65859;43.020;25.096;2023-04-24T10:38:13;10.77;;;5.20;;
76900;SDS011;65859;43.020;25.096;2023-04-24T10:40:43;6.68;;;4.45;;
76900;SDS011;65859;43.020;25.096;2023-04-24T10:43:10;4.80;;;4.28;;
76900;SDS011;65859;43.020;25.096;2023-04-24T10:45:41;5.80;;;4.40;;
76900;SDS011;65859;43.020;25.096;2023-04-24T10:48:29;5.32;;;4.20;;
76900;SDS011;65859;43.020;25.096;2023-04-24T10:50:57;7.70;;;5.32;;
76900;SDS011;65859;43.020;25.096;2023-04-24T10:53:28;7.93;;;4.78;;
76900;SDS011;65859;43.020;25.096;2023-04-24T10:56:05;7.55;;;4.78;;
76900;SDS011;65859;43.020;25.096;2023-04-24T10:58:38;6.53;;;4.75;;
76900;SDS011;65859;43.020;25.096;2023-04-24T11:01:23;7.53;;;5.40;;
76900;SDS011;65859;43.020;25.096;2023-04-24T11:06:29;7.13;;;5.50;;
76900;SDS011;65859;43.020;25.096;2023-04-24T11:09:06;5.70;;;5.07;;
76900;SDS011;65859;43.020;25.096;2023-04-24T11:11:35;6.78;;;5.35;;
76900;SDS011;65859;43.020;25.096;2023-04-24T11:14:08;7.20;;;5.40;;
76900;SDS011;65859;43.020;25.096;2023-04-24T11:21:45;5.22;;;4.70;;
76900;SDS011;65859;43.020;25.096;2023-04-24T11:29:58;9.85;;;6.70;;
76900;SDS011;65859;43.020;25.096;2023-04-24T11:32:27;4.70;;;4.15;;
76900;SDS011;65859;43.020;25.096;2023-04-24T11:34:54;5.95;;;4.70;;
76900;SDS011;65859;43.020;25.096;2023-04-24T11:37:25;5.30;;;3.95;;
76900;SDS011;65859;43.020;25.096;2023-04-24T11:39:57;4.55;;;3.97;;
76900;SDS011;65859;43.020;25.096;2023-04-24T11:42:23;4.30;;;3.60;;
76900;SDS011;65859;43.020;25.096;2023-04-24T11:44:53;5.97;;;4.60;;
76900;SDS011;65859;43.020;25.096;2023-04-24T11:47:27;4.32;;;3.42;;
76900;SDS011;65859;43.020;25.096;2023-04-24T11:49:55;6.45;;;3.92;;
76900;SDS011;65859;43.020;25.096;2023-04-24T11:52:21;3.30;;;3.00;;
76900;SDS011;65859;43.020;25.096;2023-04-24T11:54:48;4.47;;;3.90;;
76900;SDS011;65859;43.020;25.096;2023-04-24T11:57:24;4.32;;;3.42;;
76900;SDS011;65859;43.020;25.096;2023-04-24T11:59:59;4.40;;;3.67;;
76900;SDS011;65859;43.020;25.096;2023-04-24T12:02:26;3.95;;;3.58;;
76900;SDS011;65859;43.020;25.096;2023-04-24T12:04:53;12.15;;;4.22;;
76900;SDS011;65859;43.020;25.096;2023-04-24T12:07:20;8.13;;;4.07;;
76900;SDS011;65859;43.020;25.096;2023-04-24T12:09:55;4.20;;;3.70;;
76900;SDS011;65859;43.020;25.096;2023-04-24T12:12:25;4.28;;;3.10;;
76900;SDS011;65859;43.020;25.096;2023-04-24T12:14:53;6.22;;;3.13;;
76900;SDS011;65859;43.020;25.096;2023-04-24T12:17:31;5.28;;;3.42;;
76900;SDS011;65859;43.020;25.096;2023-04-24T12:19:59;5.38;;;3.97;;
76900;SDS011;65859;43.020;25.096;2023-04-24T12:22:28;5.90;;;3.30;;
76900;SDS011;65859;43.020;25.096;2023-04-24T12:25:15;5.65;;;4.18;;
76900;SDS011;65859;43.020;25.096;2023-04-24T12:27:43;3.20;;;2.90;;
76900;SDS011;65859;43.020;25.096;2023-04-24T12:30:12;4.28;;;3.30;;
76900;SDS011;65859;43.020;25.096;2023-04-24T12:32:44;3.90;;;3.17;;
76900;SDS011;65859;43.020;25.096;2023-04-24T12:35:13;4.40;;;3.00;;
76900;SDS011;65859;43.020;25.096;2023-04-24T12:37:45;4.50;;;3.22;;
76900;SDS011;65859;43.020;25.096;2023-04-24T12:40:13;5.80;;;3.72;;
76900;SDS011;65859;43.020;25.096;2023-04-24T12:45:11;4.45;;;4.05;;
76900;SDS011;65859;43.020;25.096;2023-04-24T12:47:38;4.40;;;3.80;;
76900;SDS011;65859;43.020;25.096;2023-04-24T12:50:07;5.90;;;3.47;;
76900;SDS011;65859;43.020;25.096;2023-04-24T12:52:34;5.38;;;3.60;;
76900;SDS011;65859;43.020;25.096;2023-04-24T12:55:01;3.58;;;3.20;;
76900;SDS011;65859;43.020;25.096;2023-04-24T12:57:30;5.45;;;3.70;;
76900;SDS011;65859;43.020;25.096;2023-04-24T12:59:57;7.03;;;3.88;;
76900;SDS011;65859;43.020;25.096;2023-04-24T13:02:24;5.22;;;3.35;;
76900;SDS011;65859;43.020;25.096;2023-04-24T13:04:53;10.40;;;3.92;;
76900;SDS011;65859;43.020;25.096;2023-04-24T13:07:19;5.55;;;4.60;;
76900;SDS011;65859;43.020;25.096;2023-04-24T13:09:47;6.13;;;3.70;;
76900;SDS011;65859;43.020;25.096;2023-04-24T13:12:16;6.18;;;3.47;;
76900;SDS011;65859;43.020;25.096;2023-04-24T13:14:43;7.20;;;3.88;;
76900;SDS011;65859;43.020;25.096;2023-04-24T13:17:10;5.03;;;3.70;;
76900;SDS011;65859;43.020;25.096;2023-04-24T13:19:38;8.20;;;5.18;;
76900;SDS011;65859;43.020;25.096;2023-04-24T13:22:06;6.60;;;3.60;;
76900;SDS011;65859;43.020;25.096;2023-04-24T13:24:34;10.38;;;4.60;;
76900;SDS011;65859;43.020;25.096;2023-04-24T13:27:01;6.25;;;4.45;;
76900;SDS011;65859;43.020;25.096;2023-04-24T13:29:27;6.40;;;4.25;;
76900;SDS011;65859;43.020;25.096;2023-04-24T13:31:54;5.80;;;3.75;;
76900;SDS011;65859;43.020;25.096;2023-04-24T13:34:24;4.05;;;3.70;;
76900;SDS011;65859;43.020;25.096;2023-04-24T13:36:52;4.32;;;3.60;;
76900;SDS011;65859;43.020;25.096;2023-04-24T13:39:19;7.13;;;3.63;;
76900;SDS011;65859;43.020;25.096;2023-04-24T13:41:46;9.43;;;4.10;;
76900;SDS011;65859;43.020;25.096;2023-04-24T13:44:17;5.10;;;3.58;;
76900;SDS011;65859;43.020;25.096;2023-04-24T13:46:46;7.03;;;3.60;;
76900;SDS011;65859;43.020;25.096;2023-04-24T13:49:14;3.55;;;3.25;;
76900;SDS011;65859;43.020;25.096;2023-04-24T13:51:41;4.10;;;3.25;;
76900;SDS011;65859;43.020;25.096;2023-04-24T13:54:08;3.50;;;3.20;;
76900;SDS011;65859;43.020;25.096;2023-04-24T13:56:34;4.63;;;3.30;;
76900;SDS011;65859;43.020;25.096;2023-04-24T13:59:01;6.13;;;3.70;;
76900;SDS011;65859;43.020;25.096;2023-04-24T14:01:27;9.65;;;4.28;;
76900;SDS011;65859;43.020;25.096;2023-04-24T14:03:54;4.53;;;3.92;;
76900;SDS011;65859;43.020;25.096;2023-04-24T14:06:21;6.00;;;3.05;;
76900;SDS011;65859;43.020;25.096;2023-04-24T14:08:48;4.47;;;3.72;;
76900;SDS011;65859;43.020;25.096;2023-04-24T14:11:15;5.53;;;4.03;;
76900;SDS011;65859;43.020;25.096;2023-04-24T14:13:42;4.93;;;3.58;;
76900;SDS011;65859;43.020;25.096;2023-04-24T14:16:11;5.15;;;3.78;;
76900;SDS011;65859;43.020;25.096;2023-04-24T14:18:39;4.88;;;4.10;;
76900;SDS011;65859;43.020;25.096;2023-04-24T14:21:05;6.50;;;3.72;;
76900;SDS011;65859;43.020;25.096;2023-04-24T14:23:32;4.95;;;3.55;;
76900;SDS011;65859;43.020;25.096;2023-04-24T14:25:59;4.50;;;3.65;;
76900;SDS011;65859;43.020;25.096;2023-04-24T14:28:25;6.03;;;4.03;;
76900;SDS011;65859;43.020;25.096;2023-04-24T14:30:52;4.85;;;3.15;;
76900;SDS011;65859;43.020;25.096;2023-04-24T14:33:18;4.20;;;3.80;;
76900;SDS011;65859;43.020;25.096;2023-04-24T14:35:45;6.18;;;4.47;;
76900;SDS011;65859;43.020;25.096;2023-04-24T14:38:13;5.47;;;3.88;;
76900;SDS011;65859;43.020;25.096;2023-04-24T14:40:40;6.78;;;3.55;;
76900;SDS011;65859;43.020;25.096;2023-04-24T14:43:06;7.75;;;4.10;;